Time;durP1;ratioP1;P1;durP2;ratioP2;P2;SDS_P1;SDS_P2;PMS_P1;PMS_P2;Temp;Humidity;BMP_temperature;BMP_pressure;BME280_temperature;BME280_humidity;BME280_pressure;Samples;Min_cycle;Max_cycle;Signal;HPM_P1;HPM_P2
2023/07/31 00:00:12;;;;;;;2.10;2.00;;;22.00;71.50;;;;;;5021902;28;20042;-77
2023/07/31 00:02:37;;;;;;;2.20;2.08;;;22.00;71.10;;;;;;4991220;28;20049;-77
2023/07/31 00:05:03;;;;;;;2.00;1.90;;;22.00;70.70;;;;;;5039638;28;20131;-77
2023/07/31 00:07:29;;;;;;;2.20;2.00;;;22.00;70.50;;;;;;5020567;28;20056;-77
2023/07/31 00:09:56;;;;;;;2.60;2.40;;;22.00;71.20;;;;;;5006557;28;20038;-77
2023/07/31 00:12:22;;;;;;;2.15;1.95;;;22.00;71.30;;;;;;5023148;28;20037;-77
2023/07/31 00:14:47;;;;;;;2.13;2.03;;;22.00;70.90;;;;;;5021749;28;20520;-77
2023/07/31 00:17:13;;;;;;;2.63;2.05;;;22.00;71.20;;;;;;5037554;28;20038;-77
2023/07/31 00:19:38;;;;;;;2.30;2.10;;;22.00;70.90;;;;;;5005994;28;20045;-77
2023/07/31 00:22:04;;;;;;;2.10;2.00;;;22.00;70.80;;;;;;5022978;28;20041;-77
2023/07/31 00:24:30;;;;;;;2.35;2.17;;;22.00;70.90;;;;;;5021279;28;20083;-77
2023/07/31 00:26:55;;;;;;;2.60;1.95;;;22.00;70.90;;;;;;5023582;28;20132;-78
2023/07/31 00:29:21;;;;;;;1.88;1.77;;;22.00;70.90;;;;;;5024895;28;20514;-77
2023/07/31 00:31:46;;;;;;;2.10;2.00;;;22.00;70.90;;;;;;5023722;28;20455;-77
2023/07/31 00:34:12;;;;;;;2.13;1.92;;;22.00;71.20;;;;;;5022070;28;20057;-77
2023/07/31 00:36:38;;;;;;;1.85;1.70;;;22.00;71.20;;;;;;5023072;28;20503;-77
2023/07/31 00:39:04;;;;;;;1.95;1.85;;;21.90;71.20;;;;;;5022154;28;20397;-77
2023/07/31 00:41:30;;;;;;;1.88;1.77;;;22.00;71.20;;;;;;5022259;28;20503;-77
2023/07/31 00:43:55;;;;;;;2.10;2.00;;;22.00;71.10;;;;;;5023847;28;20128;-77
2023/07/31 00:46:21;;;;;;;2.33;2.13;;;22.00;72.20;;;;;;5006900;28;20064;-77
2023/07/31 00:48:47;;;;;;;2.05;1.92;;;22.00;71.60;;;;;;5005031;28;20041;-77
2023/07/31 00:51:12;;;;;;;1.88;1.77;;;22.00;71.50;;;;;;5022632;28;20495;-77
2023/07/31 00:53:38;;;;;;;2.58;1.85;;;22.00;71.50;;;;;;5023763;28;20044;-77
2023/07/31 00:56:04;;;;;;;2.13;2.03;;;22.00;71.50;;;;;;5041782;28;20123;-77
2023/07/31 00:58:29;;;;;;;1.85;1.75;;;22.00;71.50;;;;;;4986122;28;20053;-77
2023/07/31 01:00:55;;;;;;;2.08;1.90;;;22.00;71.40;;;;;;4988954;28;20041;-77
2023/07/31 01:03:20;;;;;;;1.63;1.52;;;22.00;71.70;;;;;;5006918;28;20518;-77
2023/07/31 01:05:52;;;;;;;2.05;1.95;;;22.00;71.40;;;;;;4989897;28;20041;-77
2023/07/31 01:08:24;;;;;;;1.98;1.88;;;22.00;71.50;;;;;;5022926;28;20175;-77
2023/07/31 01:10:52;;;;;;;1.85;1.75;;;22.00;71.70;;;;;;5006927;28;20044;-77
2023/07/31 01:13:18;;;;;;;2.15;1.73;;;22.00;71.70;;;;;;5020849;28;20045;-77
2023/07/31 01:15:43;;;;;;;2.05;1.90;;;22.00;71.70;;;;;;5005537;28;20044;-77
2023/07/31 01:18:09;;;;;;;2.10;1.90;;;22.00;71.70;;;;;;5022250;28;20037;-77
2023/07/31 01:20:35;;;;;;;1.92;1.83;;;22.00;72.00;;;;;;5005425;28;20052;-77
2023/07/31 01:23:09;;;;;;;1.75;1.63;;;22.00;71.80;;;;;;5007355;28;20120;-77
2023/07/31 01:26:00;;;;;;;2.10;1.85;;;22.00;72.00;;;;;;5021382;28;20046;-77
2023/07/31 01:28:34;;;;;;;2.30;2.10;;;22.00;71.90;;;;;;5052747;28;20046;-77
2023/07/31 01:30:59;;;;;;;1.98;1.88;;;22.00;72.00;;;;;;5023714;28;20034;-77
2023/07/31 01:33:25;;;;;;;1.90;1.80;;;22.00;71.90;;;;;;5004542;28;20080;-77
2023/07/31 01:35:51;;;;;;;4.03;1.77;;;22.00;72.00;;;;;;4985921;28;20033;-77
2023/07/31 01:38:20;;;;;;;1.90;1.80;;;22.00;72.00;;;;;;4990415;28;20045;-77
2023/07/31 01:40:50;;;;;;;2.28;2.08;;;22.00;72.00;;;;;;5022885;28;20053;-77
2023/07/31 01:43:15;;;;;;;1.60;1.50;;;22.00;72.00;;;;;;5003388;28;20060;-77
2023/07/31 01:45:41;;;;;;;1.65;1.55;;;22.00;71.90;;;;;;5007070;28;20045;-77
2023/07/31 01:48:07;;;;;;;1.50;1.40;;;22.00;71.90;;;;;;5022880;28;20558;-77
2023/07/31 01:50:32;;;;;;;1.95;1.80;;;22.00;71.90;;;;;;5022162;28;20462;-77
2023/07/31 01:52:58;;;;;;;1.80;1.70;;;22.00;72.00;;;;;;5023392;28;20053;-77
2023/07/31 01:55:23;;;;;;;1.67;1.58;;;22.00;72.00;;;;;;5022466;28;20041;-77
2023/07/31 01:57:49;;;;;;;1.42;1.33;;;22.00;72.00;;;;;;5004692;28;20107;-77
2023/07/31 02:00:14;;;;;;;1.85;1.75;;;22.00;72.00;;;;;;5020123;28;20049;-77
2023/07/31 02:02:40;;;;;;;2.10;2.00;;;22.00;72.10;;;;;;5021279;28;20130;-77
2023/07/31 02:05:06;;;;;;;1.70;1.60;;;22.00;72.10;;;;;;5005521;28;20038;-77
2023/07/31 02:07:31;;;;;;;1.75;1.65;;;22.00;72.10;;;;;;5003099;28;20038;-77
2023/07/31 02:09:57;;;;;;;1.98;1.88;;;22.00;72.20;;;;;;4985736;28;20044;-77
2023/07/31 02:12:22;;;;;;;2.10;2.00;;;22.00;72.10;;;;;;5004207;28;20038;-77
2023/07/31 02:14:48;;;;;;;1.73;1.63;;;22.00;72.10;;;;;;5000370;28;20063;-77
2023/07/31 02:17:14;;;;;;;2.08;1.98;;;22.00;72.10;;;;;;5005469;28;20742;-77
2023/07/31 02:19:39;;;;;;;2.05;1.95;;;22.00;72.10;;;;;;5008916;28;20045;-77
2023/07/31 02:22:05;;;;;;;1.80;1.70;;;22.00;72.10;;;;;;5026364;28;20098;-77
2023/07/31 02:24:31;;;;;;;1.92;1.83;;;22.00;72.10;;;;;;5025128;28;20084;-78
2023/07/31 02:26:57;;;;;;;1.90;1.80;;;22.00;72.20;;;;;;5026108;28;20396;-77
2023/07/31 02:29:22;;;;;;;1.67;1.58;;;22.00;72.10;;;;;;5011691;28;20574;-78
2023/07/31 02:31:48;;;;;;;1.98;1.88;;;22.00;72.10;;;;;;4992104;28;20388;-77
2023/07/31 02:34:14;;;;;;;1.90;1.80;;;22.00;72.10;;;;;;5023247;28;20034;-77
2023/07/31 02:36:39;;;;;;;2.10;2.00;;;21.90;72.30;;;;;;5025644;28;20061;-77
2023/07/31 02:39:05;;;;;;;1.85;1.75;;;22.00;72.20;;;;;;5008750;28;20049;-77
2023/07/31 02:41:30;;;;;;;1.90;1.80;;;22.00;72.30;;;;;;5005467;28;20503;-77
2023/07/31 02:43:56;;;;;;;1.90;1.80;;;22.00;72.30;;;;;;5042925;28;20052;-77
2023/07/31 02:46:24;;;;;;;1.58;1.48;;;22.00;72.30;;;;;;5025711;28;20514;-77
2023/07/31 02:48:50;;;;;;;1.50;1.40;;;22.00;72.30;;;;;;5006466;28;20075;-77
2023/07/31 02:51:15;;;;;;;2.00;1.90;;;22.00;72.40;;;;;;5018427;28;20038;-76
2023/07/31 02:53:41;;;;;;;1.65;1.55;;;22.00;72.40;;;;;;5007145;28;20103;-77
2023/07/31 02:56:06;;;;;;;1.65;1.55;;;22.00;72.50;;;;;;5010055;28;20029;-77
2023/07/31 02:58:32;;;;;;;1.77;1.67;;;22.00;72.40;;;;;;5008021;28;20583;-77
2023/07/31 03:00:58;;;;;;;1.50;1.40;;;22.00;72.70;;;;;;5009856;28;20053;-77
2023/07/31 03:03:24;;;;;;;1.60;1.50;;;22.00;72.50;;;;;;4988780;28;20042;-77
2023/07/31 03:05:49;;;;;;;2.00;1.90;;;22.00;72.40;;;;;;5026016;28;20045;-77
2023/07/31 03:08:15;;;;;;;1.65;1.55;;;22.00;72.50;;;;;;5027429;28;20095;-77
2023/07/31 03:10:41;;;;;;;1.80;1.70;;;22.00;72.50;;;;;;5007550;28;20125;-77
2023/07/31 03:13:06;;;;;;;1.20;1.15;;;22.00;72.50;;;;;;5023864;28;20049;-77
2023/07/31 03:15:32;;;;;;;1.60;1.50;;;22.00;72.50;;;;;;5024657;28;20069;-77
2023/07/31 03:17:58;;;;;;;1.60;1.50;;;22.00;72.50;;;;;;5006404;28;20061;-77
2023/07/31 03:20:23;;;;;;;1.60;1.50;;;22.00;72.50;;;;;;5006106;28;20571;-77
2023/07/31 03:22:49;;;;;;;1.75;1.65;;;22.00;72.50;;;;;;5025605;28;20042;-77
2023/07/31 03:25:14;;;;;;;1.60;1.48;;;22.00;72.50;;;;;;5025020;28;20561;-77
2023/07/31 03:27:40;;;;;;;1.58;1.48;;;22.00;72.70;;;;;;5024003;28;20057;-77
2023/07/31 03:30:06;;;;;;;1.88;1.70;;;22.00;72.60;;;;;;5024269;28;20069;-77
2023/07/31 03:32:32;;;;;;;1.50;1.50;;;22.00;72.60;;;;;;5007421;28;20499;-77
2023/07/31 03:34:58;;;;;;;1.80;1.70;;;22.00;72.50;;;;;;5009946;28;20041;-77
2023/07/31 03:37:23;;;;;;;1.70;1.60;;;22.00;73.40;;;;;;5023878;28;20057;-77
2023/07/31 03:39:49;;;;;;;1.58;1.48;;;22.00;72.60;;;;;;5006784;28;20053;-77
2023/07/31 03:42:14;;;;;;;1.38;1.27;;;22.00;72.50;;;;;;5024446;28;20053;-77
2023/07/31 03:44:40;;;;;;;1.52;1.42;;;22.00;72.50;;;;;;5024711;28;20045;-76
2023/07/31 03:47:05;;;;;;;1.85;1.75;;;22.00;73.10;;;;;;5039406;28;20032;-76
2023/07/31 03:49:31;;;;;;;1.98;1.88;;;22.00;72.40;;;;;;5007772;28;20499;-76
2023/07/31 03:51:57;;;;;;;1.45;1.38;;;22.00;72.30;;;;;;5022658;28;20034;-77
2023/07/31 03:54:22;;;;;;;1.90;1.77;;;22.00;72.50;;;;;;5023456;28;20034;-76
2023/07/31 03:56:48;;;;;;;1.60;1.50;;;22.00;72.40;;;;;;5006525;28;20522;-76
2023/07/31 03:59:13;;;;;;;1.58;1.48;;;22.00;72.50;;;;;;5056324;28;20112;-76
2023/07/31 04:01:39;;;;;;;1.40;1.40;;;22.00;72.40;;;;;;5022786;28;20052;-77
2023/07/31 04:04:05;;;;;;;2.45;1.52;;;22.00;72.40;;;;;;5007599;28;20511;-77
2023/07/31 04:06:30;;;;;;;1.50;1.40;;;22.00;72.40;;;;;;5023283;28;20034;-77
2023/07/31 04:08:56;;;;;;;1.23;1.23;;;22.00;72.30;;;;;;5006693;28;20038;-77
2023/07/31 04:11:21;;;;;;;1.70;1.60;;;22.00;72.20;;;;;;5025257;28;20104;-77
2023/07/31 04:13:47;;;;;;;1.67;1.58;;;22.00;72.10;;;;;;5023617;28;20052;-77
2023/07/31 04:16:13;;;;;;;1.55;1.45;;;22.00;72.00;;;;;;5007192;28;20534;-76
2023/07/31 04:18:38;;;;;;;1.50;1.40;;;22.00;72.20;;;;;;5023850;28;20067;-76
2023/07/31 04:21:04;;;;;;;1.60;1.50;;;22.00;72.10;;;;;;5022590;28;20530;-76
2023/07/31 04:23:29;;;;;;;5.13;1.65;;;22.00;72.30;;;;;;5024253;28;20487;-76
2023/07/31 04:25:55;;;;;;;1.63;1.52;;;22.00;72.20;;;;;;5008205;28;20030;-77
2023/07/31 04:28:21;;;;;;;1.38;1.27;;;22.00;72.20;;;;;;5020469;28;20048;-77
2023/07/31 04:30:47;;;;;;;1.50;1.40;;;22.00;72.30;;;;;;5024346;28;20076;-77
2023/07/31 04:33:12;;;;;;;1.45;1.35;;;22.00;72.20;;;;;;5022130;28;20044;-77
2023/07/31 04:35:38;;;;;;;1.42;1.40;;;22.00;72.10;;;;;;5024264;28;20403;-77
2023/07/31 04:38:03;;;;;;;1.25;1.20;;;22.00;72.20;;;;;;5022445;28;20120;-77
2023/07/31 04:40:29;;;;;;;1.40;1.30;;;22.00;72.10;;;;;;5004054;28;20404;-76
2023/07/31 04:42:54;;;;;;;1.58;1.48;;;22.00;72.10;;;;;;5022791;28;20033;-77
2023/07/31 04:45:20;;;;;;;1.55;1.45;;;22.00;72.20;;;;;;5020825;28;20038;-76
2023/07/31 04:47:46;;;;;;;1.80;1.70;;;22.00;72.60;;;;;;5022434;28;25355;-76
2023/07/31 04:50:11;;;;;;;1.23;1.23;;;22.00;72.00;;;;;;5021154;28;20403;-77
2023/07/31 04:52:37;;;;;;;1.42;1.33;;;22.00;72.20;;;;;;5003951;28;20030;-76
2023/07/31 04:55:02;;;;;;;1.45;1.35;;;22.00;72.20;;;;;;5006091;28;20036;-76
2023/07/31 04:57:28;;;;;;;1.67;1.58;;;22.00;72.00;;;;;;5020784;28;21821;-76
2023/07/31 04:59:53;;;;;;;1.70;1.60;;;22.00;72.10;;;;;;5023553;28;20423;-76
2023/07/31 05:02:19;;;;;;;1.63;1.52;;;22.00;72.20;;;;;;5024717;28;20037;-77
2023/07/31 05:04:45;;;;;;;2.10;1.20;;;22.00;72.00;;;;;;5018147;28;20257;-77
2023/07/31 05:07:10;;;;;;;1.42;1.33;;;22.00;72.00;;;;;;5020651;28;20126;-77
2023/07/31 05:09:36;;;;;;;1.55;1.45;;;22.00;72.00;;;;;;5020815;28;20059;-76
2023/07/31 05:12:02;;;;;;;1.60;1.50;;;22.00;72.00;;;;;;5019538;28;20049;-77
2023/07/31 05:14:27;;;;;;;1.30;1.20;;;22.00;71.90;;;;;;5020516;28;20533;-77
2023/07/31 05:16:53;;;;;;;1.30;1.20;;;22.00;71.90;;;;;;5023453;28;20034;-77
2023/07/31 05:19:18;;;;;;;1.42;1.33;;;22.00;71.90;;;;;;5022376;28;20575;-76
2023/07/31 05:21:44;;;;;;;1.60;1.50;;;22.00;71.90;;;;;;5003248;28;20038;-77
2023/07/31 05:24:10;;;;;;;1.50;1.40;;;22.00;71.80;;;;;;5005985;28;20053;-76
2023/07/31 05:26:35;;;;;;;1.75;1.65;;;22.00;71.90;;;;;;5022372;28;20491;-76
2023/07/31 05:29:01;;;;;;;1.63;1.52;;;22.00;71.90;;;;;;5021583;28;20033;-77
2023/07/31 05:31:27;;;;;;;1.50;1.40;;;22.00;72.70;;;;;;5021930;28;20410;-76
2023/07/31 05:33:52;;;;;;;1.40;1.30;;;22.00;71.90;;;;;;5022208;28;20498;-76
2023/07/31 05:36:18;;;;;;;1.30;1.30;;;22.00;71.80;;;;;;5023009;28;20069;-76
2023/07/31 05:38:46;;;;;;;1.33;1.23;;;22.00;71.80;;;;;;5005248;28;20033;-76
2023/07/31 05:41:12;;;;;;;1.55;1.42;;;22.00;71.90;;;;;;5024983;28;20038;-76
2023/07/31 05:43:38;;;;;;;2.40;1.13;;;22.00;71.80;;;;;;5005173;28;20041;-76
2023/07/31 05:46:03;;;;;;;1.63;1.52;;;22.00;71.90;;;;;;5005078;28;20103;-77
2023/07/31 05:48:29;;;;;;;1.50;1.40;;;22.00;71.80;;;;;;5020884;28;20037;-77
2023/07/31 05:50:55;;;;;;;1.42;1.33;;;22.00;72.30;;;;;;5022350;28;20454;-77
2023/07/31 05:53:20;;;;;;;1.63;1.40;;;22.00;71.90;;;;;;5008896;28;20036;-76
2023/07/31 05:55:46;;;;;;;1.98;1.60;;;22.00;71.90;;;;;;5023182;28;20041;-76
2023/07/31 05:58:11;;;;;;;1.52;1.42;;;22.00;72.60;;;;;;5024208;28;20038;-76
2023/07/31 06:00:37;;;;;;;1.50;1.40;;;22.00;71.80;;;;;;5009862;28;20177;-76
2023/07/31 06:03:02;;;;;;;1.70;1.60;;;22.00;71.80;;;;;;5008559;28;20100;-76
2023/07/31 06:05:29;;;;;;;1.42;1.33;;;22.00;72.70;;;;;;5009986;28;20045;-76
2023/07/31 06:07:55;;;;;;;1.77;1.67;;;22.00;71.90;;;;;;5008876;28;20053;-76
2023/07/31 06:10:21;;;;;;;1.70;1.60;;;22.00;71.70;;;;;;5024755;28;20037;-76
2023/07/31 06:12:46;;;;;;;1.20;1.20;;;22.00;71.70;;;;;;5008755;28;20066;-76
2023/07/31 06:15:12;;;;;;;1.48;1.30;;;22.00;71.80;;;;;;5024285;28;20133;-76
2023/07/31 06:17:38;;;;;;;1.52;1.42;;;22.00;72.60;;;;;;5025308;28;20412;-76
2023/07/31 06:20:06;;;;;;;1.52;1.42;;;22.00;72.60;;;;;;5024949;28;20045;-77
2023/07/31 06:22:32;;;;;;;1.42;1.33;;;22.00;71.80;;;;;;5009588;28;20050;-76
2023/07/31 06:24:58;;;;;;;1.65;1.55;;;22.00;71.80;;;;;;5023779;28;20048;-76
2023/07/31 06:27:23;;;;;;;1.45;1.35;;;22.00;71.70;;;;;;5023985;28;20045;-76
2023/07/31 06:29:49;;;;;;;1.25;1.15;;;22.00;71.80;;;;;;5008353;28;20131;-76
2023/07/31 06:32:14;;;;;;;1.30;1.20;;;22.00;71.80;;;;;;5025836;28;20042;-76
2023/07/31 06:34:40;;;;;;;1.30;1.30;;;22.00;71.70;;;;;;5024168;28;20582;-76
2023/07/31 06:37:06;;;;;;;1.40;1.30;;;22.00;71.70;;;;;;4991565;28;20045;-76
2023/07/31 06:39:31;;;;;;;1.02;1.02;;;22.00;71.70;;;;;;5024467;28;20048;-76
2023/07/31 06:41:57;;;;;;;1.40;1.30;;;22.00;71.70;;;;;;5026716;28;20103;-76
2023/07/31 06:44:22;;;;;;;1.30;1.30;;;22.00;71.70;;;;;;5024280;28;20053;-76
2023/07/31 06:46:48;;;;;;;1.45;1.35;;;22.00;71.70;;;;;;5024911;28;20069;-76
2023/07/31 06:49:15;;;;;;;1.27;1.27;;;22.00;71.70;;;;;;5026743;28;20047;-76
2023/07/31 06:51:41;;;;;;;1.55;1.45;;;22.00;71.70;;;;;;5025055;28;20444;-77
2023/07/31 06:54:07;;;;;;;1.50;1.40;;;22.00;71.70;;;;;;5035631;28;20563;-77
2023/07/31 06:56:32;;;;;;;1.55;1.45;;;22.00;71.80;;;;;;5004535;28;20491;-76
2023/07/31 06:58:58;;;;;;;1.60;1.50;;;22.00;72.10;;;;;;5004868;28;20095;-75
2023/07/31 07:01:24;;;;;;;2.55;1.60;;;22.10;72.00;;;;;;5025544;28;20041;-75
2023/07/31 07:03:50;;;;;;;2.25;1.70;;;22.00;72.50;;;;;;5024407;28;20038;-75
2023/07/31 07:06:19;;;;;;;2.05;1.42;;;21.90;72.90;;;;;;5009041;28;20143;-75
2023/07/31 07:08:44;;;;;;;1.92;1.60;;;21.90;73.10;;;;;;5025047;28;20075;-75
2023/07/31 07:11:10;;;;;;;1.75;1.65;;;21.90;73.30;;;;;;5026610;28;20499;-75
2023/07/31 07:13:36;;;;;;;1.67;1.40;;;21.90;73.40;;;;;;5005919;28;20041;-75
2023/07/31 07:16:01;;;;;;;1.85;1.70;;;21.80;73.50;;;;;;5024312;28;20069;-75
2023/07/31 07:18:27;;;;;;;2.95;1.90;;;21.90;73.50;;;;;;5024376;28;20661;-75
2023/07/31 07:20:53;;;;;;;3.22;2.08;;;21.80;73.70;;;;;;5023123;28;20057;-75
2023/07/31 07:23:19;;;;;;;3.08;1.80;;;21.80;73.40;;;;;;5026216;28;20052;-75
2023/07/31 07:25:45;;;;;;;2.75;2.05;;;21.80;74.40;;;;;;5022755;28;20041;-76
2023/07/31 07:28:10;;;;;;;3.00;1.90;;;21.80;73.80;;;;;;5024269;28;20049;-75
2023/07/31 07:30:36;;;;;;;3.40;1.80;;;21.90;73.80;;;;;;5007060;28;20084;-76
2023/07/31 07:33:02;;;;;;;1.80;1.70;;;21.90;74.00;;;;;;5006479;28;20400;-75
2023/07/31 07:35:27;;;;;;;2.63;1.67;;;21.90;73.80;;;;;;5024719;28;20519;-76
2023/07/31 07:37:53;;;;;;;1.75;1.65;;;21.90;73.80;;;;;;5039883;28;20073;-77
2023/07/31 07:40:19;;;;;;;3.05;1.60;;;21.80;74.30;;;;;;5007999;28;20573;-75
2023/07/31 07:42:45;;;;;;;2.08;1.83;;;21.80;74.90;;;;;;5023062;28;20069;-75
2023/07/31 07:45:10;;;;;;;2.38;1.52;;;21.80;74.80;;;;;;5022496;28;20083;-75
2023/07/31 07:47:36;;;;;;;2.72;1.80;;;21.70;74.80;;;;;;5023999;28;20044;-76
2023/07/31 07:50:01;;;;;;;2.90;1.70;;;21.70;75.90;;;;;;5023078;28;20438;-75
2023/07/31 07:52:27;;;;;;;5.68;1.98;;;21.60;75.90;;;;;;4663221;28;9999787;-76
2023/07/31 07:54:53;;;;;;;2.10;1.90;;;21.70;76.00;;;;;;4701538;28;9999822;-76
2023/07/31 07:57:18;;;;;;;1.95;1.60;;;21.70;75.80;;;;;;5018704;28;20044;-75
2023/07/31 07:59:44;;;;;;;2.42;2.10;;;21.80;75.80;;;;;;5018955;28;20053;-75
2023/07/31 08:02:09;;;;;;;2.53;2.08;;;21.80;75.70;;;;;;5040180;28;20041;-75
2023/07/31 08:04:35;;;;;;;1.98;1.75;;;21.80;75.70;;;;;;5017484;28;20084;-75
2023/07/31 08:07:00;;;;;;;2.05;1.80;;;21.90;75.60;;;;;;5003166;28;20140;-75
2023/07/31 08:09:26;;;;;;;2.22;1.58;;;21.90;75.40;;;;;;5004803;28;20052;-75
2023/07/31 08:11:52;;;;;;;4.30;2.17;;;21.90;75.40;;;;;;5019791;28;20519;-75
2023/07/31 08:14:17;;;;;;;3.45;2.00;;;21.90;75.30;;;;;;5018606;28;20152;-75
2023/07/31 08:16:43;;;;;;;2.60;1.85;;;21.90;75.10;;;;;;5016957;28;20033;-75
2023/07/31 08:19:08;;;;;;;1.77;1.60;;;21.90;75.00;;;;;;5016992;28;20048;-75
2023/07/31 08:21:34;;;;;;;1.65;1.55;;;21.90;75.00;;;;;;5020199;28;20054;-75
2023/07/31 08:23:59;;;;;;;1.75;1.50;;;21.90;75.20;;;;;;5018175;28;20045;-75
2023/07/31 08:26:25;;;;;;;1.60;1.40;;;21.90;75.30;;;;;;5021615;28;20567;-75
2023/07/31 08:28:50;;;;;;;2.40;1.67;;;21.90;75.30;;;;;;5004384;28;20053;-75
2023/07/31 08:31:16;;;;;;;1.63;1.40;;;22.00;75.10;;;;;;5017124;28;20049;-75
2023/07/31 08:33:42;;;;;;;1.90;1.70;;;21.90;75.40;;;;;;5019633;28;20525;-75
2023/07/31 08:36:07;;;;;;;1.50;1.40;;;21.90;75.30;;;;;;5001457;28;20404;-76
2023/07/31 08:38:33;;;;;;;1.60;1.50;;;21.90;75.30;;;;;;5020201;28;20061;-75
2023/07/31 08:40:58;;;;;;;2.40;1.90;;;22.00;75.30;;;;;;5001287;28;20091;-76
2023/07/31 08:43:27;;;;;;;2.28;1.40;;;22.00;75.50;;;;;;5006074;28;20080;-75
2023/07/31 08:45:53;;;;;;;1.65;1.40;;;22.00;75.50;;;;;;4989103;28;20058;-75
2023/07/31 08:48:20;;;;;;;2.42;1.35;;;22.00;75.40;;;;;;5023737;28;20033;-75
2023/07/31 08:50:46;;;;;;;2.00;1.38;;;22.00;75.50;;;;;;5021737;28;20049;-76
2023/07/31 08:53:11;;;;;;;1.30;1.20;;;22.00;75.50;;;;;;5025438;28;20037;-75
2023/07/31 08:55:38;;;;;;;2.50;1.88;;;22.00;75.70;;;;;;5020970;28;20529;-76
2023/07/31 08:58:04;;;;;;;1.55;1.45;;;22.00;75.50;;;;;;5019839;28;20364;-74
2023/07/31 09:00:29;;;;;;;1.50;1.38;;;22.00;75.60;;;;;;5006024;28;20432;-75
2023/07/31 09:03:01;;;;;;;1.73;1.50;;;22.00;75.50;;;;;;5006200;28;20576;-75
2023/07/31 09:05:28;;;;;;;2.25;1.60;;;22.00;75.50;;;;;;5021428;28;20044;-77
2023/07/31 09:07:54;;;;;;;1.52;1.40;;;22.00;75.20;;;;;;5004083;28;20045;-77
2023/07/31 09:10:19;;;;;;;1.95;1.42;;;22.00;75.70;;;;;;5022433;28;20511;-75
2023/07/31 09:12:45;;;;;;;1.40;1.30;;;22.00;75.70;;;;;;5022573;28;20423;-74
2023/07/31 09:15:11;;;;;;;1.50;1.40;;;22.00;75.30;;;;;;5022868;28;20073;-75
2023/07/31 09:17:37;;;;;;;1.67;1.30;;;22.00;75.20;;;;;;5021665;28;20045;-74
2023/07/31 09:20:16;;;;;;;1.70;1.60;;;22.00;75.50;;;;;;5021969;28;20522;-74
2023/07/31 09:22:41;;;;;;;1.70;1.50;;;22.00;75.40;;;;;;5021633;28;20503;-74
2023/07/31 09:25:23;;;;;;;1.48;1.30;;;22.00;75.90;;;;;;5004459;28;20120;-75
2023/07/31 09:27:59;;;;;;;1.20;1.20;;;22.10;75.50;;;;;;5040309;28;20411;-75
2023/07/31 09:30:25;;;;;;;1.27;1.17;;;22.10;75.30;;;;;;5010147;28;20136;-75
2023/07/31 09:32:51;;;;;;;1.88;1.40;;;22.10;75.60;;;;;;5026572;28;20573;-76
2023/07/31 09:35:29;;;;;;;1.60;1.25;;;22.10;75.50;;;;;;5026695;28;20045;-75
2023/07/31 09:38:06;;;;;;;1.38;1.27;;;22.10;75.50;;;;;;5023950;28;20045;-75
2023/07/31 09:40:36;;;;;;;1.42;1.33;;;22.10;75.40;;;;;;5040200;28;20172;-76
2023/07/31 09:43:31;;;;;;;2.83;1.48;;;22.10;75.20;;;;;;5008889;28;20057;-75
2023/07/31 09:45:58;;;;;;;1.48;1.38;;;22.10;75.00;;;;;;5015007;28;20504;-75
2023/07/31 09:48:26;;;;;;;1.30;1.20;;;22.10;75.10;;;;;;5010074;28;20125;-74
2023/07/31 09:50:52;;;;;;;1.38;1.20;;;22.20;75.10;;;;;;4990970;28;20159;-75
2023/07/31 09:53:17;;;;;;;2.95;1.60;;;22.20;75.00;;;;;;5027306;28;20075;-74
2023/07/31 09:55:43;;;;;;;1.20;1.10;;;22.20;75.10;;;;;;5009458;28;20064;-75
2023/07/31 09:58:10;;;;;;;1.23;1.10;;;22.20;75.10;;;;;;5025886;28;20047;-75
2023/07/31 10:00:35;;;;;;;1.30;1.20;;;22.20;75.10;;;;;;5007747;28;20088;-75
2023/07/31 10:03:03;;;;;;;1.00;1.00;;;22.20;75.10;;;;;;5026966;28;20090;-74
2023/07/31 10:05:32;;;;;;;1.70;1.20;;;22.10;75.10;;;;;;5011345;28;20041;-75
2023/07/31 10:07:58;;;;;;;1.10;1.10;;;22.20;75.30;;;;;;5055828;28;20586;-75
2023/07/31 10:10:24;;;;;;;1.00;1.00;;;22.20;75.20;;;;;;5021344;28;20033;-75
2023/07/31 10:12:50;;;;;;;1.40;1.30;;;22.10;75.40;;;;;;5024155;28;20041;-75
2023/07/31 10:15:15;;;;;;;3.17;1.10;;;22.10;75.80;;;;;;5007293;28;20045;-76
2023/07/31 10:17:41;;;;;;;1.45;1.02;;;22.20;75.90;;;;;;4992972;28;20136;-75
2023/07/31 10:20:07;;;;;;;0.93;0.93;;;22.20;76.20;;;;;;5043878;28;20050;-75
2023/07/31 10:22:33;;;;;;;1.85;1.10;;;22.20;76.40;;;;;;5023487;28;20129;-75
2023/07/31 10:24:59;;;;;;;0.90;0.90;;;22.20;76.80;;;;;;5009217;28;20633;-75
2023/07/31 10:27:24;;;;;;;1.65;1.55;;;22.20;76.70;;;;;;5019132;28;20046;-74
2023/07/31 10:29:50;;;;;;;1.05;1.05;;;22.20;76.60;;;;;;5021213;28;20049;-75
2023/07/31 10:32:16;;;;;;;1.10;1.10;;;22.20;76.70;;;;;;5026749;28;20380;-74
2023/07/31 10:34:41;;;;;;;2.15;1.10;;;22.10;76.50;;;;;;5024699;28;20102;-75
2023/07/31 10:37:23;;;;;;;1.30;1.05;;;22.20;76.20;;;;;;5023819;28;20041;-74
2023/07/31 10:40:05;;;;;;;1.00;0.90;;;22.20;76.20;;;;;;5007691;28;20049;-74
2023/07/31 10:42:39;;;;;;;1.20;1.10;;;22.20;76.10;;;;;;5025684;28;20095;-75
2023/07/31 10:45:06;;;;;;;1.25;1.15;;;22.20;76.80;;;;;;5024601;28;20054;-74
2023/07/31 10:47:46;;;;;;;2.50;1.30;;;22.20;76.20;;;;;;5024654;28;20103;-76
2023/07/31 10:50:12;;;;;;;0.90;0.90;;;22.20;76.20;;;;;;5024987;28;20518;-76
2023/07/31 10:52:37;;;;;;;1.00;1.00;;;22.20;76.90;;;;;;5026626;28;20176;-76
2023/07/31 10:55:24;;;;;;;1.33;1.23;;;22.20;76.50;;;;;;5025219;28;20167;-75
2023/07/31 10:57:50;;;;;;;1.67;1.42;;;22.20;77.00;;;;;;4992353;28;20050;-75
2023/07/31 11:00:28;;;;;;;1.75;1.65;;;22.20;77.40;;;;;;5008971;28;20076;-74
2023/07/31 11:02:58;;;;;;;1.57;1.40;;;22.20;78.80;;;;;;4351828;28;10000762;-75
2023/07/31 11:05:48;;;;;;;2.95;1.50;;;22.20;78.80;;;;;;5021266;28;20776;-75
2023/07/31 11:08:21;;;;;;;13.90;4.85;;;22.20;78.70;;;;;;5021209;28;20426;-75
2023/07/31 11:10:47;;;;;;;21.17;8.75;;;22.30;78.80;;;;;;5021133;28;20040;-75
2023/07/31 11:13:13;;;;;;;8.43;5.63;;;22.30;78.60;;;;;;5002479;28;20038;-75
2023/07/31 11:15:38;;;;;;;9.07;4.15;;;22.40;80.10;;;;;;5018213;28;20049;-75
2023/07/31 11:18:05;;;;;;;6.07;3.88;;;22.40;79.60;;;;;;5020608;28;20057;-73
2023/07/31 11:20:31;;;;;;;4.85;3.25;;;22.40;79.80;;;;;;5019136;28;20064;-74
2023/07/31 11:23:05;;;;;;;6.43;3.28;;;22.40;80.50;;;;;;5020321;28;20049;-77
2023/07/31 11:25:33;;;;;;;3.83;2.95;;;22.40;80.10;;;;;;5001742;28;20040;-78
2023/07/31 11:28:04;;;;;;;2.75;2.30;;;22.30;80.90;;;;;;5005345;28;20053;-77
2023/07/31 11:30:29;;;;;;;2.33;2.13;;;22.20;81.20;;;;;;5019243;28;20041;-77
2023/07/31 11:32:55;;;;;;;5.63;2.10;;;22.30;80.90;;;;;;5003327;28;20053;-75
2023/07/31 11:35:22;;;;;;;2.58;2.28;;;22.30;81.10;;;;;;5021122;28;20046;-76
2023/07/31 11:37:48;;;;;;;2.17;2.05;;;22.30;81.50;;;;;;5002211;28;20063;-76
2023/07/31 11:40:14;;;;;;;5.15;2.40;;;22.20;82.10;;;;;;5017826;28;20523;-76
2023/07/31 11:42:39;;;;;;;2.75;2.00;;;22.30;81.40;;;;;;4989787;28;20183;-76
2023/07/31 11:45:06;;;;;;;3.60;2.28;;;22.30;81.20;;;;;;5020184;28;20423;-76
2023/07/31 11:47:34;;;;;;;3.45;2.22;;;22.30;81.20;;;;;;5020418;28;20064;-77
2023/07/31 11:50:00;;;;;;;3.03;2.53;;;22.30;81.10;;;;;;5001310;28;20034;-76
2023/07/31 11:52:25;;;;;;;1.98;1.80;;;22.30;81.40;;;;;;5002531;28;20065;-76
2023/07/31 11:54:51;;;;;;;2.42;2.08;;;22.20;81.30;;;;;;5000340;28;20037;-76
2023/07/31 11:57:16;;;;;;;2.67;1.85;;;22.20;81.20;;;;;;4987696;28;20487;-76
2023/07/31 11:59:42;;;;;;;2.38;1.95;;;22.20;81.30;;;;;;5020667;28;20411;-75
2023/07/31 12:02:08;;;;;;;2.15;1.88;;;22.30;81.80;;;;;;5029944;28;20390;-76
2023/07/31 12:04:33;;;;;;;2.35;2.15;;;22.20;81.70;;;;;;5016379;28;20033;-75
2023/07/31 12:07:00;;;;;;;2.00;1.80;;;22.20;82.00;;;;;;5001387;28;20037;-76
2023/07/31 12:09:26;;;;;;;2.40;1.92;;;22.30;81.80;;;;;;5019169;28;20102;-76
2023/07/31 12:11:55;;;;;;;1.92;1.75;;;22.20;81.90;;;;;;4764030;28;10000649;-76
2023/07/31 12:14:24;;;;;;;2.22;1.90;;;22.20;81.90;;;;;;5052101;28;20250;-76
2023/07/31 12:16:56;;;;;;;1.90;1.80;;;22.20;81.50;;;;;;5019852;28;20038;-76
2023/07/31 12:19:22;;;;;;;2.45;1.98;;;22.30;82.10;;;;;;5022854;28;20059;-76
2023/07/31 12:21:49;;;;;;;2.10;1.90;;;22.30;81.30;;;;;;5006905;28;20045;-76
2023/07/31 12:24:15;;;;;;;2.53;1.80;;;22.40;81.10;;;;;;5006139;28;20077;-77
2023/07/31 12:26:42;;;;;;;2.40;2.13;;;22.40;81.40;;;;;;5023540;28;20472;-76
2023/07/31 12:29:08;;;;;;;1.98;1.77;;;22.40;81.00;;;;;;5054297;28;20049;-77
2023/07/31 12:31:34;;;;;;;2.22;2.03;;;22.50;80.50;;;;;;5026261;28;20053;-77
2023/07/31 12:33:59;;;;;;;2.20;2.00;;;22.40;80.60;;;;;;5022751;28;20138;-77
2023/07/31 12:36:25;;;;;;;1.60;1.50;;;22.30;80.70;;;;;;5023426;28;20080;-78
2023/07/31 12:38:51;;;;;;;2.53;1.70;;;22.40;80.40;;;;;;5023924;28;20044;-77
2023/07/31 12:41:16;;;;;;;2.03;1.80;;;22.40;80.20;;;;;;5025390;28;20058;-77